Time;durP1;ratioP1;P1;durP2;ratioP2;P2;SDS_P1;SDS_P2;PMS_P1;PMS_P2;Temp;Humidity;BMP_temperature;BMP_pressure;BME280_temperature;BME280_humidity;BME280_pressure;Samples;Min_cycle;Max_cycle;Signal;HPM_P1;HPM_P2
2022/03/09 00:00:12;;;;;;;25.27;18.88;;;5.50;99.90;;;5.60;51.78;101892.81;5095500;28;20063;-58
2022/03/09 00:02:41;;;;;;;27.03;19.70;;;5.50;99.90;;;5.50;52.09;101894.28;5095430;28;20496;-59
2022/03/09 00:05:10;;;;;;;29.30;19.57;;;5.40;99.90;;;5.53;52.10;101908.31;5095656;28;20040;-59
2022/03/09 00:07:38;;;;;;;26.92;18.65;;;5.40;99.90;;;5.48;52.39;101903.81;5095285;28;20062;-59
2022/03/09 00:10:08;;;;;;;25.42;18.85;;;5.30;99.90;;;5.60;52.10;101919.06;5095395;28;20071;-59
2022/03/09 00:12:37;;;;;;;27.17;18.73;;;5.40;99.90;;;5.53;51.94;101910.09;5077214;28;20056;-60
2022/03/09 00:15:06;;;;;;;29.15;19.67;;;5.40;99.90;;;5.48;51.85;101913.41;5094927;28;20077;-59
2022/03/09 00:17:38;;;;;;;28.43;19.47;;;5.30;99.90;;;5.45;51.99;101914.22;5095073;28;20060;-59
2022/03/09 00:20:08;;;;;;;28.95;19.63;;;5.30;99.90;;;5.52;51.51;101911.81;5095200;28;20440;-59
2022/03/09 00:22:36;;;;;;;27.05;19.13;;;5.30;99.90;;;5.65;51.50;101909.63;5077095;28;20052;-61
2022/03/09 00:25:06;;;;;;;26.27;19.80;;;5.40;99.90;;;5.60;51.30;101898.06;5095069;28;20123;-59
2022/03/09 00:27:34;;;;;;;29.67;19.88;;;5.50;99.90;;;5.68;51.07;101914.06;5095032;28;20102;-61
2022/03/09 00:30:04;;;;;;;30.42;20.38;;;5.50;99.90;;;5.71;51.36;101915.06;5095272;28;20354;-61
2022/03/09 00:32:33;;;;;;;;;;;5.50;99.90;;;5.99;50.83;101912.50;5095439;28;20040;-61
2022/03/09 00:35:03;;;;;;;32.45;19.85;;;5.70;99.90;;;6.12;50.26;101909.38;5094709;28;19930;-60
2022/03/09 00:37:33;;;;;;;25.63;18.45;;;5.90;99.90;;;5.91;50.38;101910.47;5095035;28;20048;-61
2022/03/09 00:40:01;;;;;;;26.50;18.63;;;5.80;99.90;;;5.66;50.65;101908.78;5076655;28;20048;-60
2022/03/09 00:42:30;;;;;;;26.92;19.08;;;5.60;99.90;;;5.72;51.03;101918.56;5095027;28;20040;-60
2022/03/09 00:44:59;;;;;;;30.65;19.20;;;5.50;99.90;;;5.72;50.76;101918.56;5076578;28;20039;-60
2022/03/09 00:47:27;;;;;;;28.17;19.50;;;5.50;99.90;;;5.77;50.62;101917.88;5094797;28;20046;-60
2022/03/09 00:49:56;;;;;;;26.33;19.48;;;5.60;99.90;;;5.65;50.70;101916.59;5094672;28;20126;-60
2022/03/09 00:52:26;;;;;;;28.25;19.17;;;5.50;99.90;;;5.52;50.91;101930.19;5094187;28;20048;-60
2022/03/09 00:54:55;;;;;;;28.70;20.30;;;5.40;99.90;;;5.63;51.11;101927.06;5076336;28;20072;-60
2022/03/09 00:57:23;;;;;;;27.23;19.67;;;5.40;99.90;;;5.75;50.98;101927.44;5094546;28;20071;-60
2022/03/09 00:59:52;;;;;;;26.17;19.65;;;5.50;99.90;;;5.69;50.40;101926.38;5093880;28;20052;-60
2022/03/09 01:02:20;;;;;;;29.23;19.53;;;5.50;99.90;;;5.67;50.61;101920.16;5093176;28;20257;-60
2022/03/09 01:04:49;;;;;;;27.25;19.10;;;5.50;99.90;;;5.59;50.40;101921.66;5094257;28;20044;-60
2022/03/09 01:07:17;;;;;;;24.58;18.60;;;5.40;99.90;;;5.58;50.50;101930.34;5093900;28;20071;-63
2022/03/09 01:09:47;;;;;;;26.25;18.67;;;5.40;99.90;;;5.72;50.19;101929.06;5075783;28;20151;-60
2022/03/09 01:12:15;;;;;;;22.65;18.95;;;5.40;99.90;;;5.79;50.15;101931.94;5093855;28;20040;-60
2022/03/09 01:14:44;;;;;;;25.98;19.10;;;5.60;99.90;;;5.58;50.13;101928.63;5093701;28;20044;-60
2022/03/09 01:17:12;;;;;;;27.95;18.98;;;5.50;99.90;;;5.59;50.09;101938.28;5075555;28;20185;-60
2022/03/09 01:19:40;;;;;;;24.85;19.58;;;5.40;99.90;;;5.42;50.95;101929.84;5075716;28;20375;-60
2022/03/09 01:22:09;;;;;;;27.95;19.52;;;5.30;99.90;;;5.31;50.75;101927.72;5093623;28;20131;-60
2022/03/09 01:24:37;;;;;;;30.17;19.75;;;5.20;99.90;;;5.23;51.07;101924.84;5093505;28;20043;-60
2022/03/09 01:27:07;;;;;;;26.45;18.45;;;5.10;99.90;;;5.26;51.35;101924.06;5093579;28;20473;-60
2022/03/09 01:29:36;;;;;;;26.02;19.25;;;5.10;99.90;;;5.30;51.01;101928.56;5093761;28;20354;-60
2022/03/09 01:32:05;;;;;;;27.52;18.50;;;5.10;99.90;;;5.48;50.56;101931.78;5093596;28;20462;-60
2022/03/09 01:34:33;;;;;;;26.27;18.83;;;5.20;99.90;;;5.61;50.85;101923.50;5093809;28;20125;-60
2022/03/09 01:37:02;;;;;;;27.60;18.03;;;5.30;99.90;;;5.48;50.83;101922.19;5093307;28;20126;-60
2022/03/09 01:39:30;;;;;;;26.40;19.20;;;5.30;99.90;;;5.39;50.66;101923.63;5093223;28;20381;-60
2022/03/09 01:41:58;;;;;;;28.25;19.35;;;5.20;99.90;;;5.35;50.57;101908.63;5093458;28;20042;-60
2022/03/09 01:44:29;;;;;;;27.90;18.23;;;5.20;99.90;;;5.37;50.41;101917.44;5093564;28;20044;-60
2022/03/09 01:46:57;;;;;;;25.05;19.30;;;5.20;99.90;;;5.43;50.79;101912.38;5093155;28;20044;-60
2022/03/09 01:49:26;;;;;;;32.28;18.73;;;5.20;99.90;;;5.33;50.79;101910.28;5093041;28;20039;-60
2022/03/09 01:52:00;;;;;;;24.27;18.30;;;5.10;99.90;;;5.32;50.27;101900.66;5093384;28;20075;-60
2022/03/09 01:54:30;;;;;;;25.53;18.50;;;5.20;99.90;;;5.21;50.97;101904.63;5093537;28;20172;-60
2022/03/09 01:57:00;;;;;;;23.05;17.75;;;5.10;99.90;;;5.08;51.43;101902.44;5093028;28;20085;-60
2022/03/09 01:59:30;;;;;;;;;;;4.90;99.90;;;4.94;51.88;101896.72;5093362;28;20351;-60
2022/03/09 02:01:59;;;;;;;28.07;17.73;;;4.80;99.90;;;5.02;52.07;101907.47;5093229;28;19930;-59
2022/03/09 02:04:28;;;;;;;26.43;18.60;;;4.80;99.90;;;4.95;51.75;101901.16;5092762;28;20052;-60
2022/03/09 02:06:59;;;;;;;27.73;18.70;;;4.80;99.90;;;4.99;51.56;101897.78;5074719;28;20054;-60
2022/03/09 02:09:43;;;;;;;23.77;18.53;;;4.80;99.90;;;5.01;51.31;101892.59;5092688;28;20462;-60
2022/03/09 02:12:14;;;;;;;27.00;19.20;;;4.90;99.90;;;5.12;51.30;101896.47;5092394;28;20439;-60
2022/03/09 02:14:47;;;;;;;24.73;19.33;;;4.90;99.90;;;5.25;51.30;101906.53;5074529;28;20097;-61
2022/03/09 02:17:17;;;;;;;27.07;19.23;;;5.00;99.90;;;5.29;50.57;101903.16;5092907;28;20052;-60
2022/03/09 02:19:49;;;;;;;25.43;19.37;;;5.00;99.90;;;5.30;50.28;101902.34;5092796;28;20048;-60
2022/03/09 02:22:30;;;;;;;36.33;19.57;;;5.10;99.90;;;5.23;50.45;101918.69;5092505;28;20101;-60
2022/03/09 02:25:00;;;;;;;25.10;19.65;;;5.00;99.90;;;5.21;50.33;101918.66;5092747;28;20048;-60
2022/03/09 02:27:29;;;;;;;28.77;20.53;;;5.00;99.90;;;5.13;50.39;101909.63;5092469;28;20157;-61
2022/03/09 02:29:58;;;;;;;33.90;20.63;;;5.00;99.90;;;5.17;50.51;101910.59;5092563;28;20482;-60
2022/03/09 02:32:26;;;;;;;27.60;20.03;;;5.00;99.90;;;5.14;50.23;101905.28;5092565;28;20083;-60
2022/03/09 02:34:56;;;;;;;30.40;21.63;;;5.00;99.90;;;5.08;50.76;101905.06;5092406;28;20485;-60
2022/03/09 02:37:26;;;;;;;29.53;20.87;;;5.00;99.90;;;5.10;50.79;101903.38;5074375;28;20382;-61
2022/03/09 02:39:54;;;;;;;29.77;20.83;;;4.90;99.90;;;4.99;51.28;101897.78;5092279;28;20651;-60
2022/03/09 02:42:22;;;;;;;27.58;19.33;;;4.80;99.90;;;4.97;51.04;101896.84;5092172;28;20482;-60
2022/03/09 02:44:51;;;;;;;26.50;19.73;;;4.80;99.90;;;5.03;51.01;101899.66;5092176;28;20051;-60
2022/03/09 02:47:19;;;;;;;27.63;20.63;;;4.80;99.90;;;5.14;50.63;101902.66;5074286;28;20362;-60
2022/03/09 02:49:47;;;;;;;26.73;19.67;;;4.90;99.90;;;5.06;50.86;101893.63;5092181;28;20048;-60
2022/03/09 02:52:16;;;;;;;27.47;19.93;;;4.90;99.90;;;4.88;51.19;101895.66;5092405;28;20405;-60
2022/03/09 02:54:46;;;;;;;27.63;19.60;;;4.80;99.90;;;4.88;51.40;101885.16;5092360;28;20101;-59
2022/03/09 02:57:14;;;;;;;26.80;20.50;;;4.70;99.90;;;4.92;51.23;101884.41;5092322;28;20044;-60
2022/03/09 02:59:43;;;;;;;27.27;19.83;;;4.70;99.90;;;4.87;51.16;101884.25;5092242;28;20489;-60
2022/03/09 03:02:11;;;;;;;27.47;19.83;;;4.70;99.90;;;4.88;51.73;101893.88;5092388;28;20079;-60
2022/03/09 03:04:39;;;;;;;28.93;19.63;;;4.70;99.90;;;4.90;51.57;101886.97;5074234;28;20072;-60
2022/03/09 03:07:08;;;;;;;32.53;20.33;;;4.70;99.90;;;4.94;51.72;101893.19;5092272;28;20339;-60
2022/03/09 03:09:36;;;;;;;27.90;20.20;;;4.80;99.90;;;4.93;51.29;101887.09;5092018;28;20032;-60
2022/03/09 03:12:07;;;;;;;25.97;19.60;;;4.80;99.90;;;4.85;51.34;101882.41;5074074;28;20044;-60
2022/03/09 03:14:35;;;;;;;30.13;20.63;;;4.70;99.90;;;4.83;51.21;101881.47;5092129;28;20044;-60
2022/03/09 03:17:04;;;;;;;27.23;19.87;;;4.70;99.90;;;4.79;51.67;101884.81;5091883;28;20083;-60
2022/03/09 03:19:32;;;;;;;26.77;19.37;;;4.60;99.90;;;4.80;51.36;101887.47;5092330;28;20044;-60
2022/03/09 03:22:01;;;;;;;26.27;18.77;;;4.60;99.90;;;4.82;51.73;101888.44;5092090;28;20522;-60
2022/03/09 03:24:29;;;;;;;27.00;18.60;;;4.70;99.90;;;4.75;51.74;101888.16;5093370;28;20032;-60
2022/03/09 03:26:57;;;;;;;29.07;19.70;;;4.60;99.90;;;4.66;51.67;101883.50;5096444;28;20044;-60
2022/03/09 03:29:27;;;;;;;28.13;19.83;;;4.70;99.90;;;4.83;51.85;101886.72;5096413;28;20067;-60
2022/03/09 03:31:55;;;;;;;28.77;20.15;;;4.70;99.90;;;4.77;51.97;101889.09;5096333;28;20135;-60
2022/03/09 03:34:24;;;;;;;25.67;19.60;;;4.60;99.90;;;4.86;51.69;101889.44;5095961;28;20036;-61
2022/03/09 03:36:53;;;;;;;27.53;20.57;;;4.70;99.90;;;4.81;51.55;101883.13;5095762;28;20043;-59
2022/03/09 03:39:21;;;;;;;27.63;19.77;;;4.70;99.90;;;4.80;51.96;101881.38;5095856;28;20134;-60
2022/03/09 03:41:49;;;;;;;30.13;20.70;;;4.70;99.90;;;4.85;51.84;101885.94;5095955;28;20104;-61
2022/03/09 03:44:18;;;;;;;28.87;21.20;;;4.70;99.90;;;4.90;51.51;101886.97;5095620;28;20063;-60
2022/03/09 03:46:48;;;;;;;30.37;20.13;;;4.70;99.90;;;4.87;51.43;101889.50;5095529;28;20048;-60
2022/03/09 03:49:16;;;;;;;28.15;20.45;;;4.70;99.90;;;4.80;51.33;101877.00;5096350;28;20048;-60
2022/03/09 03:51:45;;;;;;;26.43;19.30;;;4.70;99.90;;;4.79;51.82;101896.19;5095696;28;20040;-60
2022/03/09 03:54:13;;;;;;;27.07;19.27;;;4.70;99.90;;;4.76;51.65;101887.34;5095349;28;20470;-60
2022/03/09 03:56:41;;;;;;;27.03;18.87;;;4.70;99.90;;;4.86;51.33;101895.56;5095548;28;20123;-60
2022/03/09 03:59:09;;;;;;;27.73;20.33;;;4.70;99.90;;;4.89;51.04;101893.06;5077145;28;20093;-60
2022/03/09 04:01:38;;;;;;;29.50;20.67;;;4.70;99.90;;;4.86;51.00;101889.44;5095429;28;20063;-61
2022/03/09 04:04:08;;;;;;;27.03;19.50;;;4.70;99.90;;;4.86;50.92;101890.31;5095053;28;20439;-61
2022/03/09 04:06:36;;;;;;;42.53;21.83;;;4.70;99.90;;;4.87;51.27;101886.88;5095341;28;20046;-60
2022/03/09 04:09:04;;;;;;;26.07;19.33;;;4.70;99.90;;;4.91;51.38;101895.72;5076911;28;20044;-60
2022/03/09 04:11:33;;;;;;;26.90;20.00;;;4.70;99.90;;;4.92;50.91;101889.63;5095011;28;20118;-60
2022/03/09 04:14:03;;;;;;;27.42;20.35;;;4.80;99.90;;;4.91;51.15;101890.50;5095056;28;20044;-60
2022/03/09 04:16:32;;;;;;;26.83;19.67;;;4.70;99.90;;;4.89;51.03;101887.81;5095076;28;20366;-60
2022/03/09 04:19:00;;;;;;;29.60;20.00;;;4.70;99.90;;;4.95;51.38;101887.13;5095313;28;20366;-60
2022/03/09 04:21:30;;;;;;;29.30;19.53;;;4.80;99.90;;;5.02;51.04;101891.75;5095140;28;20410;-60
2022/03/09 04:23:58;;;;;;;29.50;19.63;;;4.80;99.90;;;4.94;51.25;101887.97;5094617;28;20122;-60
2022/03/09 04:26:27;;;;;;;26.48;18.63;;;4.70;99.90;;;4.92;51.19;101887.00;5094859;28;20055;-60
2022/03/09 04:28:56;;;;;;;27.87;20.10;;;4.70;99.90;;;5.00;51.37;101893.41;5094565;28;20052;-60
2022/03/09 04:31:24;;;;;;;27.97;19.57;;;4.80;99.90;;;5.10;50.99;101895.53;5094823;28;20106;-61
2022/03/09 04:33:53;;;;;;;27.77;19.50;;;4.90;99.90;;;5.14;50.69;101889.53;5095073;28;20127;-61
2022/03/09 04:36:22;;;;;;;25.97;18.77;;;4.90;99.90;;;5.16;50.47;101883.53;5094078;28;20300;-60
2022/03/09 04:38:51;;;;;;;24.33;18.92;;;5.00;99.90;;;5.17;50.80;101884.38;5094506;28;20154;-60
2022/03/09 04:41:20;;;;;;;26.90;18.80;;;5.00;99.90;;;5.39;50.11;101887.78;5094356;28;20047;-60
2022/03/09 04:43:48;;;;;;;25.80;19.25;;;5.10;99.90;;;5.52;50.18;101891.69;5094178;28;20732;-60
2022/03/09 04:46:17;;;;;;;26.40;19.77;;;5.20;99.90;;;5.62;49.74;101895.50;5094229;28;20043;-60
2022/03/09 04:48:46;;;;;;;28.30;19.80;;;5.30;99.90;;;5.82;49.09;101899.66;5076215;28;20048;-60
2022/03/09 04:51:14;;;;;;;25.75;19.02;;;5.50;99.90;;;5.96;48.72;101899.25;5094179;28;20044;-60
2022/03/09 04:53:42;;;;;;;26.00;19.13;;;5.70;99.90;;;6.02;48.45;101895.94;5094400;28;20385;-60
2022/03/09 04:56:12;;;;;;;25.77;18.52;;;5.80;99.90;;;6.13;48.15;101899.78;5094194;28;20044;-60
2022/03/09 04:58:40;;;;;;;26.37;18.57;;;5.90;99.90;;;6.06;48.09;101892.53;5094059;28;20067;-60
2022/03/09 05:01:09;;;;;;;25.67;18.35;;;5.90;99.90;;;5.93;48.39;101899.19;5093981;28;20294;-60
2022/03/09 05:03:38;;;;;;;27.75;19.10;;;5.80;99.90;;;5.84;48.21;101903.25;5094137;28;20036;-60
2022/03/09 05:06:06;;;;;;;25.88;19.25;;;5.70;99.90;;;5.85;48.60;101895.41;5093793;28;20078;-59
2022/03/09 05:08:35;;;;;;;27.10;18.73;;;5.70;99.90;;;5.95;48.34;101907.09;5094085;28;20109;-60
2022/03/09 05:11:04;;;;;;;24.75;18.90;;;5.70;99.90;;;5.96;48.23;101903.63;5093910;28;20481;-59
2022/03/09 05:13:35;;;;;;;28.15;19.23;;;5.70;99.90;;;5.92;48.03;101910.50;5093709;28;20048;-60
2022/03/09 05:16:05;;;;;;;26.85;18.85;;;5.70;99.90;;;5.75;48.54;101909.06;5093589;28;20152;-60
2022/03/09 05:18:40;;;;;;;27.33;18.85;;;5.60;99.90;;;5.60;48.94;101907.69;5093902;28;20063;-59
2022/03/09 05:21:09;;;;;;;26.50;19.33;;;5.40;99.90;;;5.26;49.56;101900.44;5094152;28;20537;-60
2022/03/09 05:23:38;;;;;;;29.67;20.03;;;5.20;99.90;;;5.08;50.13;101900.72;5093367;28;20056;-60
2022/03/09 05:26:07;;;;;;;27.10;20.13;;;4.90;99.90;;;5.00;50.57;101901.28;5093470;28;20399;-59
2022/03/09 05:28:40;;;;;;;23.97;18.13;;;4.80;99.90;;;4.80;50.30;101865.66;5093557;28;20051;-60
2022/03/09 05:31:08;;;;;;;25.02;18.95;;;4.90;99.90;;;5.03;50.48;101907.50;5093385;28;20117;-59
2022/03/09 05:33:40;;;;;;;28.87;19.63;;;4.80;99.90;;;5.07;50.55;101908.53;5093594;28;20492;-60
2022/03/09 05:36:08;;;;;;;29.30;19.60;;;4.80;99.90;;;5.04;50.81;101913.66;5093976;28;20083;-59
2022/03/09 05:38:37;;;;;;;26.30;19.05;;;4.90;99.90;;;5.07;50.49;101919.03;5093353;28;20130;-59
2022/03/09 05:41:05;;;;;;;27.10;19.40;;;4.80;99.90;;;4.94;50.79;101919.41;5075423;28;20366;-59
2022/03/09 05:43:34;;;;;;;34.33;19.50;;;4.80;99.90;;;4.97;50.95;101912.56;5093382;28;20044;-59
2022/03/09 05:46:04;;;;;;;27.37;19.60;;;4.80;99.90;;;4.89;50.84;101913.13;5093592;28;20476;-59
2022/03/09 05:48:33;;;;;;;;;;;4.70;99.90;;;4.84;50.93;101914.72;5093447;28;20112;-59
2022/03/09 05:51:01;;;;;;;27.17;20.33;;;4.70;99.90;;;4.79;51.24;101916.25;5093328;28;20359;-59
2022/03/09 05:53:30;;;;;;;29.60;19.77;;;4.60;99.90;;;4.83;51.08;101945.25;5093153;28;20064;-59
2022/03/09 05:55:58;;;;;;;24.33;19.57;;;4.70;99.90;;;4.78;51.20;101917.13;5093170;28;20477;-59
2022/03/09 05:58:27;;;;;;;24.03;18.87;;;4.60;99.90;;;4.82;51.74;101919.88;5075078;28;20051;-59
2022/03/09 06:00:55;;;;;;;24.70;18.17;;;4.60;99.90;;;4.71;51.20;101879.31;5092946;28;20119;-59
2022/03/09 06:03:25;;;;;;;27.03;19.17;;;4.70;99.90;;;4.98;50.94;101911.72;5093515;28;20080;-59
2022/03/09 06:05:54;;;;;;;29.88;19.10;;;4.80;99.90;;;4.79;51.52;101916.25;5092978;28;20048;-60
2022/03/09 06:08:22;;;;;;;29.20;18.37;;;4.70;99.90;;;4.72;51.26;101915.19;5092882;28;20515;-59
2022/03/09 06:10:52;;;;;;;27.45;18.92;;;4.60;99.90;;;4.80;51.09;101920.69;5074792;28;20067;-59
2022/03/09 06:13:20;;;;;;;39.55;21.55;;;4.60;99.90;;;4.78;51.59;101920.59;5092750;28;20044;-59
2022/03/09 06:15:51;;;;;;;32.20;21.07;;;4.60;99.90;;;4.80;51.24;101923.31;5093069;28;20067;-59
2022/03/09 06:18:19;;;;;;;29.87;21.33;;;4.60;99.90;;;4.55;51.52;101895.31;5092916;28;20143;-59
2022/03/09 06:20:50;;;;;;;28.63;20.77;;;4.60;99.90;;;4.57;52.14;101925.97;5093563;28;20436;-59
2022/03/09 06:23:19;;;;;;;28.58;21.25;;;4.40;99.90;;;4.51;52.21;101930.09;5093137;28;20086;-59
2022/03/09 06:25:48;;;;;;;31.57;21.57;;;4.40;99.90;;;4.61;52.20;101936.59;5092603;28;20112;-59
2022/03/09 06:28:16;;;;;;;29.80;20.67;;;4.40;99.90;;;4.59;52.49;101931.25;5092765;28;20134;-59
2022/03/09 06:30:45;;;;;;;30.00;21.43;;;4.40;99.90;;;4.71;52.18;101926.47;5092983;28;20126;-59
2022/03/09 06:33:13;;;;;;;31.10;21.47;;;4.50;99.90;;;4.70;51.99;101919.47;5092422;28;20078;-60
2022/03/09 06:35:42;;;;;;;33.40;23.40;;;4.50;99.90;;;4.92;51.83;101935.09;5092317;28;20067;-59
2022/03/09 06:38:14;;;;;;;32.30;21.55;;;4.70;99.90;;;5.04;51.45;101934.63;5092571;28;20519;-59
2022/03/09 06:40:43;;;;;;;29.30;21.27;;;4.80;99.90;;;5.08;51.04;101929.56;5092336;28;20140;-59
2022/03/09 06:43:11;;;;;;;29.70;22.40;;;4.80;99.90;;;5.07;51.04;101930.38;5092651;28;20044;-59
2022/03/09 06:45:40;;;;;;;28.10;20.80;;;4.90;99.90;;;5.00;51.15;101922.25;5074247;28;20485;-59
2022/03/09 06:48:08;;;;;;;36.07;20.13;;;4.90;99.90;;;5.08;51.23;101926.03;5074265;28;20097;-59
2022/03/09 06:50:38;;;;;;;29.70;21.10;;;4.90;99.90;;;5.17;51.13;101937.72;5092245;28;20126;-59
2022/03/09 06:53:06;;;;;;;31.00;20.83;;;5.00;99.90;;;5.15;51.03;101933.31;5092223;28;20044;-59
2022/03/09 06:55:36;;;;;;;28.83;21.00;;;5.00;99.90;;;5.24;51.13;101934.50;5091934;28;20097;-59
2022/03/09 06:58:06;;;;;;;32.88;21.15;;;5.00;99.90;;;5.26;51.23;101937.16;5092012;28;20393;-60
2022/03/09 07:00:36;;;;;;;29.88;21.05;;;5.00;99.90;;;5.52;50.54;101943.28;5073823;28;20065;-59
2022/03/09 07:03:05;;;;;;;;;;;5.30;99.90;;;5.52;50.10;101940.66;5092826;28;20097;-59
2022/03/09 07:05:36;;;;;;;29.90;19.58;;;5.30;99.90;;;5.50;50.21;101935.34;5092063;28;19927;-60
2022/03/09 07:08:06;;;;;;;27.15;19.35;;;5.30;99.90;;;5.64;50.19;101949.81;5091874;28;20048;-59
2022/03/09 07:10:38;;;;;;;34.35;19.98;;;5.40;99.90;;;5.89;49.68;101955.06;5073900;28;20162;-60
2022/03/09 07:13:07;;;;;;;28.20;19.17;;;5.60;99.90;;;5.76;50.19;101951.94;5092060;28;20067;-60
2022/03/09 07:15:35;;;;;;;28.65;20.23;;;5.60;99.90;;;5.85;50.30;101945.28;5092523;28;20067;-59
2022/03/09 07:18:04;;;;;;;28.35;20.63;;;5.60;99.90;;;5.94;49.59;101953.44;5091807;28;20110;-59
2022/03/09 07:20:32;;;;;;;26.42;19.77;;;5.70;99.90;;;6.22;49.48;101950.84;5091593;28;20075;-59
2022/03/09 07:23:01;;;;;;;30.55;20.45;;;5.90;99.90;;;6.22;49.25;101964.00;5092046;28;20040;-59
2022/03/09 07:25:30;;;;;;;33.20;19.73;;;6.00;99.90;;;6.47;49.18;101969.97;5092184;28;20435;-60
2022/03/09 07:28:08;;;;;;;31.92;20.23;;;6.20;99.90;;;6.46;49.38;101962.94;5091791;28;20052;-59
2022/03/09 07:30:37;;;;;;;28.87;19.83;;;6.20;99.90;;;6.58;48.68;101960.69;5073910;28;20158;-59
2022/03/09 07:33:05;;;;;;;27.85;19.67;;;6.40;99.90;;;6.64;48.98;101966.13;5091808;28;20343;-59
2022/03/09 07:35:33;;;;;;;31.98;20.48;;;6.40;99.90;;;6.83;48.85;101973.69;5091872;28;20131;-59
2022/03/09 07:38:03;;;;;;;29.95;20.83;;;6.50;99.90;;;6.79;49.58;101974.44;5091730;28;20039;-60
2022/03/09 07:40:32;;;;;;;29.73;20.00;;;6.60;99.90;;;6.97;49.00;101973.19;5091789;28;20040;-59
2022/03/09 07:43:00;;;;;;;31.92;20.30;;;6.70;99.90;;;6.96;48.82;101974.06;5091495;28;20439;-59
2022/03/09 07:45:30;;;;;;;37.13;21.08;;;6.70;99.90;;;7.12;48.68;101972.75;5091893;28;20040;-60
2022/03/09 07:48:01;;;;;;;33.22;20.42;;;6.80;99.90;;;7.40;48.51;101976.97;5091495;28;20074;-61
2022/03/09 07:50:30;;;;;;;30.83;20.10;;;7.10;99.90;;;7.49;49.32;101986.00;5091642;28;20039;-60
2022/03/09 07:52:59;;;;;;;27.42;20.25;;;7.20;99.90;;;7.28;48.24;101986.34;5091197;28;20040;-59
2022/03/09 07:55:27;;;;;;;31.80;20.98;;;7.10;99.90;;;7.27;48.28;101984.56;5073313;28;20044;-60
2022/03/09 07:57:57;;;;;;;28.67;19.65;;;7.00;99.90;;;7.39;48.98;101988.38;5091334;28;20490;-60
2022/03/09 08:00:25;;;;;;;40.38;21.33;;;7.10;99.90;;;7.42;48.64;101985.81;5091171;28;20032;-59
2022/03/09 08:02:55;;;;;;;32.40;21.35;;;7.10;99.90;;;7.29;48.23;101977.63;5091441;28;20079;-60
2022/03/09 08:05:44;;;;;;;35.10;20.63;;;7.10;99.90;;;7.61;49.64;101983.69;5091274;28;20123;-59
2022/03/09 08:08:13;;;;;;;34.63;20.42;;;7.30;99.90;;;7.66;48.41;101979.44;5091073;28;20078;-60
2022/03/09 08:10:41;;;;;;;30.98;21.67;;;7.40;99.90;;;7.59;48.34;101981.91;5074576;28;20465;-59
2022/03/09 08:13:09;;;;;;;33.90;21.52;;;7.40;99.90;;;7.59;48.99;101977.50;5095268;28;20040;-60
2022/03/09 08:15:38;;;;;;;36.65;21.75;;;7.40;99.90;;;7.52;48.62;101978.22;5095113;28;20056;-59
2022/03/09 08:18:07;;;;;;;30.85;21.75;;;7.30;99.90;;;7.55;48.57;101986.16;5095518;28;20052;-59
2022/03/09 08:20:36;;;;;;;34.53;22.88;;;7.30;99.90;;;7.55;48.66;101980.91;5094762;28;20614;-58
2022/03/09 08:23:04;;;;;;;42.22;23.08;;;7.30;99.90;;;7.51;48.82;101980.81;5094959;28;20044;-59
2022/03/09 08:25:32;;;;;;;31.20;22.00;;;7.30;99.90;;;7.71;49.19;101984.81;5095201;28;20043;-59
2022/03/09 08:28:02;;;;;;;33.58;21.02;;;7.40;99.90;;;7.84;48.24;101979.88;5094904;28;20391;-58
2022/03/09 08:30:30;;;;;;;35.50;22.52;;;7.60;99.90;;;7.88;48.12;101981.75;5094990;28;20040;-58
2022/03/09 08:32:59;;;;;;;37.47;22.13;;;7.70;99.90;;;7.97;48.67;101996.91;5094527;28;20059;-59
2022/03/09 08:35:33;;;;;;;30.00;22.02;;;7.70;99.90;;;7.95;47.28;102006.50;5094533;28;20048;-58
2022/03/09 08:38:02;;;;;;;35.58;21.58;;;7.70;99.90;;;8.01;47.78;101991.72;5094456;28;20450;-58
2022/03/09 08:40:30;;;;;;;29.88;21.55;;;7.80;99.90;;;8.11;47.85;101987.56;5094433;28;20467;-59
2022/03/09 08:42:58;;;;;;;36.65;23.88;;;7.90;99.90;;;8.23;47.58;101987.84;5076314;28;20068;-61
2022/03/09 08:45:27;;;;;;;37.97;24.83;;;8.00;99.90;;;8.39;47.24;101983.84;5094616;28;20063;-59
2022/03/09 08:47:55;;;;;;;35.53;23.15;;;8.10;99.90;;;8.52;46.01;101993.78;5094723;28;20415;-59
2022/03/09 08:50:24;;;;;;;39.03;23.63;;;8.20;99.90;;;8.35;47.67;101989.91;5094426;28;20040;-58
2022/03/09 08:53:04;;;;;;;34.22;22.10;;;8.10;99.90;;;8.34;47.81;101993.41;5094530;28;20048;-59
2022/03/09 08:55:33;;;;;;;36.45;23.25;;;8.10;99.90;;;8.56;46.86;101993.00;5094392;28;20070;-59
2022/03/09 08:58:01;;;;;;;31.08;21.77;;;8.30;99.90;;;8.79;46.70;101997.91;5094559;28;20070;-59
2022/03/09 09:00:30;;;;;;;32.45;21.48;;;8.50;99.90;;;9.06;44.97;102006.41;5094363;28;20443;-59
2022/03/09 09:03:00;;;;;;;34.13;22.67;;;8.70;99.90;;;9.02;45.57;102012.47;5094057;28;20511;-59
2022/03/09 09:05:31;;;;;;;33.00;23.35;;;8.70;99.90;;;8.94;45.58;102011.41;5094382;28;20059;-60
2022/03/09 09:08:00;;;;;;;34.88;23.45;;;8.70;99.90;;;9.47;45.06;102017.75;5094267;28;20466;-60
2022/03/09 09:10:36;;;;;;;39.63;24.63;;;9.00;99.90;;;9.08;45.00;102006.41;5094256;28;20094;-60
2022/03/09 09:13:07;;;;;;;36.72;23.88;;;9.00;99.90;;;9.07;45.62;102002.03;5093871;28;20048;-60
2022/03/09 09:15:36;;;;;;;37.22;22.20;;;8.80;99.90;;;8.40;45.32;101893.38;5094113;28;20044;-59
2022/03/09 09:18:07;;;;;;;35.50;22.70;;;8.80;99.90;;;9.01;45.03;102008.06;5093487;28;20040;-59
2022/03/09 09:20:54;;;;;;;37.08;23.30;;;8.80;99.90;;;9.33;46.00;102003.38;5093784;28;20076;-60
2022/03/09 09:23:22;;;;;;;35.72;23.80;;;8.90;99.90;;;9.45;44.84;102003.63;5092526;28;20048;-59
2022/03/09 09:25:52;;;;;;;33.10;23.33;;;9.20;99.90;;;9.28;46.41;101999.78;5093456;28;20067;-60
2022/03/09 09:28:20;;;;;;;39.33;23.87;;;9.10;99.90;;;9.23;45.85;102004.09;5093540;28;20078;-59
2022/03/09 09:30:49;;;;;;;69.53;37.40;;;9.00;99.90;;;9.60;45.97;102008.31;5093471;28;20374;-61
2022/03/09 09:33:18;;;;;;;46.35;28.92;;;9.30;99.90;;;9.61;44.89;102004.78;5093584;28;20118;-58
2022/03/09 09:35:49;;;;;;;38.33;23.55;;;9.30;99.90;;;9.77;45.56;102002.47;5093737;28;20048;-56
2022/03/09 09:38:18;;;;;;;37.50;24.35;;;9.40;99.90;;;9.65;45.79;102004.88;5093847;28;20063;-56
2022/03/09 09:40:51;;;;;;;36.17;23.33;;;9.50;99.90;;;9.10;46.53;101896.50;5093897;28;20063;-55
2022/03/09 09:43:22;;;;;;;40.92;23.63;;;9.40;99.90;;;9.76;45.61;101997.13;5093310;28;20048;-56
2022/03/09 09:45:51;;;;;;;37.75;23.40;;;9.40;99.90;;;9.69;45.70;102009.34;5075194;28;20072;-55
2022/03/09 09:48:20;;;;;;;37.65;23.27;;;9.50;99.90;;;9.92;45.93;102000.06;5093018;28;20105;-55
2022/03/09 09:50:54;;;;;;;38.80;23.52;;;9.60;99.90;;;9.78;45.01;102009.50;5093580;28;20127;-55
2022/03/09 09:53:24;;;;;;;37.65;24.15;;;9.60;99.90;;;9.76;46.17;102007.69;5092851;28;20055;-55
2022/03/09 09:55:53;;;;;;;38.42;25.13;;;9.50;99.90;;;9.77;44.75;102006.84;5074436;28;20454;-55
2022/03/09 09:58:24;;;;;;;38.33;24.40;;;9.50;99.90;;;9.86;45.48;102012.28;5093223;28;20119;-55
2022/03/09 10:00:54;;;;;;;39.70;24.67;;;9.50;99.90;;;10.20;45.50;102011.97;5092793;28;20042;-55
2022/03/09 10:03:22;;;;;;;38.95;24.95;;;9.80;99.90;;;10.14;45.44;102019.84;5074662;28;20044;-56
2022/03/09 10:05:51;;;;;;;36.35;22.95;;;9.80;99.90;;;11.05;44.70;102024.66;5092916;28;20040;-56
2022/03/09 10:08:19;;;;;;;45.90;25.73;;;10.50;99.90;;;11.18;43.97;102018.63;5092457;28;20040;-55
2022/03/09 10:10:58;;;;;;;42.22;25.90;;;10.90;99.90;;;11.46;42.67;102027.75;5092773;28;20089;-56
2022/03/09 10:13:29;;;;;;;41.30;25.55;;;11.10;99.90;;;11.73;44.33;102031.59;5092848;28;20048;-56
2022/03/09 10:16:15;;;;;;;40.30;24.55;;;11.40;99.90;;;11.20;43.82;102023.94;5092455;28;20052;-56
2022/03/09 10:18:56;;;;;;;38.03;24.45;;;11.00;99.90;;;11.29;43.43;102008.13;5092504;28;20048;-56
2022/03/09 10:21:28;;;;;;;42.10;24.55;;;11.00;99.90;;;11.03;43.56;102017.56;5092373;28;20048;-56